Paines Hollow, New York
Current Conditions -  °F | °C
As of 4:53 PM on Saturday 25 Oct 2014 (Local Time) from KRME Reporting Station
Overcast Overcast  
Wind Chill: 17°   Ceiling: 6000
Heat Index: 17°   Visibility: 10mi
Dew Point:   Wind: 5mph
Humidity: 58%   Direction: 160°SSE
Pressure: 29.54"   Gusts: NA
Location:  42.9627°N, 74.9432°W
Report Text: KRME 252053Z 16004KT 10SM OVC060 17/08 A2954 RMK AO2 SLP003 60000 T01670083 58037
Loading
Personal Weather Stations






























Interactive Weather Map
Tropical Storm Tracking
New forecast layout! Learn more

10-Day Weather Forecast

Advertisements
Track Severe Weather on mobile